Time;durP1;ratioP1;P1;durP2;ratioP2;P2;SDS_P1;SDS_P2;PMS_P1;PMS_P2;Temp;Humidity;BMP_temperature;BMP_pressure;BME280_temperature;BME280_humidity;BME280_pressure;Samples;Min_cycle;Max_cycle;Signal;HPM_P1;HPM_P2
2022/10/12 00:01:05;;;;;;;36.60;22.90;;;;;;;12.52;100.00;93677.69;5071314;28;20048;-70
2022/10/12 00:03:33;;;;;;;32.88;22.77;;;;;;;12.59;100.00;93675.06;5071426;28;20522;-70
2022/10/12 00:06:02;;;;;;;29.85;21.58;;;;;;;12.63;100.00;93679.56;5070934;28;20128;-70
2022/10/12 00:08:29;;;;;;;32.42;21.52;;;;;;;12.65;100.00;93677.56;5071060;28;20045;-70
2022/10/12 00:10:55;;;;;;;28.45;20.50;;;;;;;12.69;100.00;93672.81;5070891;28;20500;-70
2022/10/12 00:13:23;;;;;;;27.13;20.60;;;;;;;12.73;100.00;93671.38;5071384;28;20121;-70
2022/10/12 00:15:50;;;;;;;23.02;17.70;;;;;;;12.74;100.00;93664.44;5071087;28;20109;-70
2022/10/12 00:18:17;;;;;;;23.90;17.52;;;;;;;12.73;100.00;93663.63;5070810;28;20489;-70
2022/10/12 00:20:44;;;;;;;24.92;17.63;;;;;;;12.69;100.00;93663.28;5071001;28;20044;-70
2022/10/12 00:23:10;;;;;;;23.95;17.92;;;;;;;12.70;100.00;93664.06;5070935;28;20052;-70
2022/10/12 00:25:38;;;;;;;23.55;18.02;;;;;;;12.65;100.00;93646.66;5070681;28;20052;-70
2022/10/12 00:28:06;;;;;;;25.52;18.95;;;;;;;12.72;100.00;93653.56;5071024;28;20098;-71
2022/10/12 00:30:34;;;;;;;26.60;18.88;;;;;;;12.77;100.00;93651.91;5070794;28;20048;-71
2022/10/12 00:33:01;;;;;;;24.02;17.35;;;;;;;12.76;100.00;93665.00;5070803;28;20447;-71
2022/10/12 00:35:29;;;;;;;24.80;18.08;;;;;;;12.68;100.00;93651.38;5070467;28;20090;-71
2022/10/12 00:37:56;;;;;;;23.05;17.73;;;;;;;12.79;100.00;93662.00;5070542;28;20044;-71
2022/10/12 00:40:23;;;;;;;24.63;18.35;;;;;;;12.79;100.00;93664.59;5070805;28;20044;-70
2022/10/12 00:42:50;;;;;;;23.08;18.02;;;;;;;12.79;100.00;93662.00;5070382;28;20048;-70
2022/10/12 00:45:17;;;;;;;25.85;18.42;;;;;;;12.80;100.00;93663.59;5070286;28;20078;-70
2022/10/12 00:47:50;;;;;;;24.42;18.13;;;;;;;12.82;100.00;93671.88;5070405;28;20044;-70
2022/10/12 00:50:22;;;;;;;23.80;17.77;;;;;;;12.84;100.00;93662.16;5070379;28;20450;-70
2022/10/12 00:52:57;;;;;;;26.02;18.77;;;;;;;12.86;100.00;93667.13;5069930;28;20094;-70
2022/10/12 00:55:26;;;;;;;26.63;18.70;;;;;;;12.82;100.00;93662.38;5061616;28;20410;-70
2022/10/12 00:57:55;;;;;;;25.60;19.00;;;;;;;12.85;100.00;93662.94;5067634;28;20040;-70
2022/10/12 01:00:23;;;;;;;24.83;17.98;;;;;;;12.85;100.00;93661.16;5069829;28;20125;-70
2022/10/12 01:02:53;;;;;;;24.35;16.92;;;;;;;12.87;100.00;93663.53;5069549;28;20041;-70
2022/10/12 01:05:20;;;;;;;23.52;16.80;;;;;;;12.89;100.00;93659.75;5070015;28;20544;-70
2022/10/12 01:07:47;;;;;;;23.58;18.45;;;;;;;12.89;100.00;93659.75;5069965;28;20044;-70
2022/10/12 01:10:14;;;;;;;24.92;18.67;;;;;;;12.88;100.00;93657.38;5070029;28;20094;-71
2022/10/12 01:12:44;;;;;;;24.42;17.70;;;;;;;12.88;100.00;93660.75;5069708;28;20098;-70
2022/10/12 01:15:12;;;;;;;27.30;18.50;;;;;;;12.85;100.00;93650.06;5069991;28;20063;-70
2022/10/12 01:17:49;;;;;;;28.25;20.40;;;;;;;12.90;100.00;93660.50;5070006;28;20106;-70
2022/10/12 01:20:57;;;;;;;35.35;18.48;;;;;;;12.91;100.00;93659.53;5070003;28;20105;-70
2022/10/12 01:23:56;;;;;;;40.58;21.17;;;;;;;12.88;100.00;93658.16;5064866;28;20094;-70
2022/10/12 01:26:48;;;;;;;45.58;23.25;;;;;;;12.90;100.00;93655.34;5062208;28;20485;-70
2022/10/12 01:29:36;;;;;;;36.55;23.77;;;;;;;12.86;100.00;93655.00;5065322;28;20048;-70
2022/10/12 01:32:12;;;;;;;44.20;26.65;;;;;;;12.54;100.00;93650.72;5069025;28;20053;-70
2022/10/12 01:34:48;;;;;;;44.08;26.92;;;;;;;12.47;100.00;93656.91;5068767;28;20048;-70
2022/10/12 01:37:18;;;;;;;;;;;;;;;12.43;100.00;93656.53;5069523;28;20049;-69
2022/10/12 01:39:50;;;;;;;34.65;22.27;;;;;;;12.24;100.00;93642.81;5069073;28;20295;-69
2022/10/12 01:42:23;;;;;;;34.80;21.77;;;;;;;12.25;100.00;93639.22;5068816;28;20048;-70
2022/10/12 01:44:50;;;;;;;32.47;21.55;;;;;;;12.32;100.00;93646.91;5068832;28;20102;-70
2022/10/12 01:47:18;;;;;;;38.22;22.15;;;;;;;12.32;100.00;93652.06;5068918;28;20052;-70
2022/10/12 01:49:45;;;;;;;35.78;21.27;;;;;;;12.21;100.00;93653.53;5068411;28;20041;-70
2022/10/12 01:52:27;;;;;;;35.03;22.67;;;;;;;12.28;100.00;93656.84;5068811;28;20048;-70
2022/10/12 01:55:08;;;;;;;35.25;23.40;;;;;;;12.36;100.00;93654.00;5068885;28;20036;-70
2022/10/12 01:57:49;;;;;;;33.22;21.33;;;;;;;12.44;100.00;93655.53;5068749;28;20094;-70
2022/10/12 02:00:17;;;;;;;29.77;20.27;;;;;;;12.47;100.00;93655.13;5068194;28;20045;-70
2022/10/12 02:02:52;;;;;;;26.85;18.13;;;;;;;12.32;100.00;93634.03;5068904;28;20117;-70
2022/10/12 02:05:27;;;;;;;26.15;17.05;;;;;;;12.52;100.00;93663.03;5065694;28;20040;-70
2022/10/12 02:08:00;;;;;;;27.15;17.90;;;;;;;12.58;100.00;93666.53;5068381;28;20087;-70
2022/10/12 02:10:33;;;;;;;28.13;18.83;;;;;;;12.62;100.00;93661.75;5068501;28;20044;-70
2022/10/12 02:13:02;;;;;;;29.30;19.25;;;;;;;12.66;100.00;93668.06;5068582;28;20443;-70
2022/10/12 02:15:31;;;;;;;33.25;20.38;;;;;;;12.69;100.00;93670.22;5068406;28;20040;-70
2022/10/12 02:18:02;;;;;;;29.38;19.02;;;;;;;12.72;100.00;93669.78;5068327;28;20048;-70
2022/10/12 02:20:29;;;;;;;28.30;18.55;;;;;;;12.70;100.00;93677.72;5068267;28;20045;-70
2022/10/12 02:22:56;;;;;;;34.58;20.13;;;;;;;12.71;100.00;93673.38;5068399;28;20044;-70
2022/10/12 02:25:26;;;;;;;31.92;20.20;;;;;;;12.61;100.00;93676.44;5065665;28;20547;-71
2022/10/12 02:27:59;;;;;;;33.92;21.50;;;;;;;12.56;100.00;93668.53;5068094;28;20044;-70
2022/10/12 02:30:26;;;;;;;34.42;21.42;;;;;;;12.65;100.00;93680.16;5068531;28;20049;-71
2022/10/12 02:32:58;;;;;;;36.17;21.08;;;;;;;12.64;100.00;93676.00;5068327;28;20118;-70
2022/10/12 02:35:34;;;;;;;36.22;22.52;;;;;;;12.57;100.00;93670.13;5068559;28;20045;-70
2022/10/12 02:38:07;;;;;;;32.15;20.65;;;;;;;12.35;100.00;93665.31;5068183;28;20525;-70
2022/10/12 02:40:38;;;;;;;35.08;21.13;;;;;;;12.21;100.00;93674.16;5068363;28;20407;-72
2022/10/12 02:43:11;;;;;;;35.15;22.48;;;;;;;12.09;100.00;93674.78;5068065;28;20045;-71
2022/10/12 02:45:41;;;;;;;31.77;20.58;;;;;;;11.77;100.00;93672.94;5067960;28;20041;-71
2022/10/12 02:48:09;;;;;;;33.50;20.60;;;;;;;11.63;100.00;93664.50;5068446;28;20094;-71
2022/10/12 02:50:37;;;;;;;38.00;22.73;;;;;;;11.44;100.00;93667.94;5068131;28;20488;-71
2022/10/12 02:53:05;;;;;;;39.38;23.42;;;;;;;11.38;100.00;93679.03;5065475;28;20454;-71
2022/10/12 02:55:32;;;;;;;38.13;23.77;;;;;;;11.40;100.00;93670.13;5057689;28;20103;-71
2022/10/12 02:57:58;;;;;;;39.70;24.63;;;;;;;11.58;100.00;93674.59;5065455;28;20048;-70
2022/10/12 03:00:25;;;;;;;39.90;23.90;;;;;;;11.73;100.00;93673.56;5069816;28;20052;-70
2022/10/12 03:02:52;;;;;;;39.55;25.17;;;;;;;11.87;100.00;93677.66;5072334;28;20098;-70
2022/10/12 03:05:19;;;;;;;37.30;22.88;;;;;;;11.95;100.00;93670.69;5072410;28;20458;-71
2022/10/12 03:07:47;;;;;;;35.30;21.25;;;;;;;11.98;100.00;93665.91;5072512;28;20420;-70
2022/10/12 03:10:14;;;;;;;37.65;22.60;;;;;;;12.01;100.00;93668.09;5072201;28;20048;-71
2022/10/12 03:12:40;;;;;;;36.00;20.70;;;;;;;12.04;100.00;93672.06;5072289;28;20095;-70
2022/10/12 03:15:07;;;;;;;33.92;21.75;;;;;;;12.06;100.00;93676.97;5072584;28;20057;-70
2022/10/12 03:17:34;;;;;;;37.33;21.00;;;;;;;12.10;100.00;93673.81;5072260;28;20102;-70
2022/10/12 03:20:01;;;;;;;34.38;21.38;;;;;;;12.18;100.00;93672.78;5072478;28;20090;-70
2022/10/12 03:22:28;;;;;;;37.47;22.30;;;;;;;12.25;100.00;93672.72;5071856;28;20431;-70
2022/10/12 03:24:56;;;;;;;35.17;20.42;;;;;;;12.28;100.00;93669.72;5071831;28;20040;-70
2022/10/12 03:27:23;;;;;;;37.92;21.65;;;;;;;12.32;100.00;93675.25;5072052;28;20551;-70
2022/10/12 03:29:50;;;;;;;34.38;21.33;;;;;;;12.38;100.00;93675.22;5072010;28;20161;-71
2022/10/12 03:32:17;;;;;;;34.50;22.98;;;;;;;12.42;100.00;93678.94;5071707;28;20101;-70
2022/10/12 03:34:43;;;;;;;36.13;21.85;;;;;;;12.45;100.00;93679.53;5071646;28;20086;-70
2022/10/12 03:37:10;;;;;;;38.97;22.27;;;;;;;12.46;100.00;93681.91;5071857;28;20049;-70
2022/10/12 03:39:37;;;;;;;34.65;22.90;;;;;;;12.48;100.00;93674.75;5071785;28;20048;-70
2022/10/12 03:42:05;;;;;;;38.67;22.92;;;;;;;12.52;100.00;93685.41;5071564;28;20509;-70
2022/10/12 03:44:32;;;;;;;38.55;21.88;;;;;;;12.56;100.00;93686.59;5071511;28;20118;-70
2022/10/12 03:46:59;;;;;;;36.33;21.90;;;;;;;12.56;100.00;93686.59;5072047;28;20098;-70
2022/10/12 03:49:25;;;;;;;35.60;21.05;;;;;;;12.59;100.00;93682.78;5071730;28;20055;-70
2022/10/12 03:51:52;;;;;;;36.10;20.90;;;;;;;12.61;100.00;93683.38;5071321;28;20446;-70
2022/10/12 03:54:19;;;;;;;35.58;21.67;;;;;;;12.60;100.00;93676.63;5071444;28;20052;-70
2022/10/12 03:56:45;;;;;;;35.92;22.58;;;;;;;12.63;100.00;93678.81;5071232;28;20048;-70
2022/10/12 03:59:14;;;;;;;36.00;21.55;;;;;;;12.64;100.00;93682.97;5071353;28;20048;-70
2022/10/12 04:01:40;;;;;;;34.40;22.02;;;;;;;12.65;100.00;93679.38;5071518;28;20049;-71
2022/10/12 04:04:07;;;;;;;35.55;22.98;;;;;;;12.64;100.00;93675.22;5071544;28;20094;-70
2022/10/12 04:06:34;;;;;;;34.35;21.25;;;;;;;12.65;100.00;93679.38;5070896;28;20493;-70
2022/10/12 04:09:01;;;;;;;37.33;22.10;;;;;;;12.65;100.00;93687.09;5071094;28;20041;-70
2022/10/12 04:11:28;;;;;;;40.17;23.02;;;;;;;12.65;100.00;93684.53;5070464;28;20048;-70
2022/10/12 04:13:54;;;;;;;34.75;22.35;;;;;;;12.68;100.00;93687.47;5071072;28;20058;-70
2022/10/12 04:16:22;;;;;;;32.15;21.45;;;;;;;12.66;100.00;93692.06;5071232;28;20052;-70
2022/10/12 04:18:49;;;;;;;34.05;20.10;;;;;;;12.67;100.00;93692.84;5070744;28;20048;-71
2022/10/12 04:21:17;;;;;;;32.13;20.45;;;;;;;12.65;100.00;93693.03;5071139;28;20044;-70
2022/10/12 04:23:43;;;;;;;32.65;21.08;;;;;;;12.65;100.00;93692.25;5070984;28;20049;-70
2022/10/12 04:26:10;;;;;;;35.20;21.48;;;;;;;12.63;100.00;93700.19;5070957;28;20519;-70
2022/10/12 04:28:37;;;;;;;33.35;20.77;;;;;;;12.60;100.00;93694.69;5070735;28;20040;-70
2022/10/12 04:31:04;;;;;;;34.25;22.13;;;;;;;12.55;100.00;93693.50;5070812;28;20048;-70
2022/10/12 04:33:32;;;;;;;35.28;21.55;;;;;;;12.53;100.00;93697.28;5070649;28;20056;-70
2022/10/12 04:35:59;;;;;;;32.28;20.38;;;;;;;12.37;100.00;93694.22;5070410;28;20109;-70
2022/10/12 04:38:25;;;;;;;33.70;22.50;;;;;;;12.20;100.00;93688.78;5070759;28;20130;-71
2022/10/12 04:40:52;;;;;;;37.55;22.48;;;;;;;11.92;100.00;93691.69;5070437;28;20042;-70
2022/10/12 04:43:19;;;;;;;37.88;23.80;;;;;;;11.77;100.00;93690.94;5070730;28;20049;-70
2022/10/12 04:45:54;;;;;;;44.40;24.30;;;;;;;11.60;100.00;93685.50;5070498;28;20558;-70
2022/10/12 04:48:21;;;;;;;38.77;25.43;;;;;;;11.53;100.00;93689.84;5070515;28;20048;-71
2022/10/12 04:50:49;;;;;;;42.75;25.05;;;;;;;11.52;100.00;93690.84;5070260;28;20281;-70
2022/10/12 04:53:16;;;;;;;39.22;24.15;;;;;;;11.42;100.00;93686.16;5070414;28;20450;-70
2022/10/12 04:55:43;;;;;;;39.15;24.08;;;;;;;11.51;100.00;93694.44;5070180;28;20118;-70
2022/10/12 04:58:09;;;;;;;39.08;25.10;;;;;;;11.57;100.00;93703.13;5070324;28;20131;-70
2022/10/12 05:00:36;;;;;;;39.90;25.40;;;;;;;11.57;100.00;93706.47;5070212;28;20110;-70
2022/10/12 05:03:04;;;;;;;37.75;24.80;;;;;;;11.63;100.00;93700.50;5070477;28;20052;-70
2022/10/12 05:05:30;;;;;;;36.58;23.30;;;;;;;11.75;100.00;93710.16;5070167;28;20094;-70
2022/10/12 05:07:58;;;;;;;40.63;24.15;;;;;;;11.86;100.00;93706.94;5069847;28;20040;-71
2022/10/12 05:10:25;;;;;;;39.65;23.95;;;;;;;11.94;100.00;93707.72;5069970;28;20453;-71
2022/10/12 05:12:52;;;;;;;44.00;27.08;;;;;;;12.02;100.00;93710.06;5069901;28;20109;-70
2022/10/12 05:15:19;;;;;;;40.13;24.60;;;;;;;11.99;100.00;93715.63;5069950;28;20435;-70
2022/10/12 05:17:46;;;;;;;41.42;23.15;;;;;;;11.85;100.00;93684.00;5070097;28;20048;-70
2022/10/12 05:20:13;;;;;;;38.92;24.70;;;;;;;12.13;100.00;93721.53;5069744;28;20198;-71
2022/10/12 05:22:39;;;;;;;39.00;23.60;;;;;;;12.13;100.00;93721.53;5068970;28;20512;-71
2022/10/12 05:25:09;;;;;;;38.38;23.30;;;;;;;12.09;100.00;93712.63;5069834;28;20468;-71
2022/10/12 05:27:36;;;;;;;36.13;22.52;;;;;;;12.06;100.00;93731.06;5069665;28;20493;-71
2022/10/12 05:30:03;;;;;;;44.65;26.60;;;;;;;11.87;100.00;93728.34;5069621;28;20052;-71
2022/10/12 05:32:29;;;;;;;45.15;28.77;;;;;;;11.92;100.00;93730.28;5069641;28;20049;-70
2022/10/12 05:34:56;;;;;;;50.92;31.17;;;;;;;11.87;100.00;93728.34;5069469;28;20041;-70
2022/10/12 05:37:23;;;;;;;51.47;30.65;;;;;;;11.84;100.00;93734.69;5069747;28;20059;-70
2022/10/12 05:39:50;;;;;;;51.75;30.35;;;;;;;11.90;100.00;93730.53;5069478;28;20045;-70
2022/10/12 05:42:18;;;;;;;53.67;34.50;;;;;;;11.90;100.00;93728.72;5069602;28;20113;-70
2022/10/12 05:44:45;;;;;;;56.75;35.40;;;;;;;12.07;100.00;93737.81;5069427;28;20090;-70
2022/10/12 05:47:12;;;;;;;55.60;36.03;;;;;;;12.11;100.00;93739.75;5069155;28;20044;-70
2022/10/12 05:49:39;;;;;;;53.55;32.47;;;;;;;12.21;100.00;93743.69;5069195;28;20049;-70
2022/10/12 05:52:05;;;;;;;56.42;34.42;;;;;;;12.27;100.00;93745.44;5069618;28;20044;-70
2022/10/12 05:54:32;;;;;;;59.03;35.80;;;;;;;12.34;100.00;93751.31;5068927;28;20098;-70
2022/10/12 05:56:59;;;;;;;60.55;37.10;;;;;;;12.42;100.00;93747.72;5069478;28;20036;-70
2022/10/12 05:59:27;;;;;;;63.45;36.35;;;;;;;12.46;100.00;93754.03;5069466;28;20102;-70
2022/10/12 06:01:54;;;;;;;62.03;36.85;;;;;;;12.51;100.00;93749.03;5068743;28;20048;-70
2022/10/12 06:04:21;;;;;;;55.97;35.40;;;;;;;12.59;100.00;93754.97;5069518;28;20048;-70
2022/10/12 06:06:47;;;;;;;57.53;34.38;;;;;;;12.64;100.00;93753.31;5068970;28;20044;-70
2022/10/12 06:09:14;;;;;;;49.08;30.15;;;;;;;12.69;100.00;93756.06;5069130;28;20048;-70
2022/10/12 06:11:41;;;;;;;44.60;29.05;;;;;;;12.70;100.00;93757.63;5069289;28;20588;-70
2022/10/12 06:14:08;;;;;;;47.42;29.95;;;;;;;12.77;100.00;93767.13;5069230;28;20512;-70
2022/10/12 06:16:36;;;;;;;52.38;30.27;;;;;;;12.80;100.00;93769.28;5069380;28;20145;-70
2022/10/12 06:19:03;;;;;;;46.83;27.77;;;;;;;12.84;100.00;93765.28;5069227;28;20053;-71
2022/10/12 06:21:30;;;;;;;42.85;27.67;;;;;;;12.88;100.00;93770.81;5069193;28;20048;-71
2022/10/12 06:23:57;;;;;;;45.88;27.63;;;;;;;12.92;100.00;93767.59;5068402;28;20451;-71
2022/10/12 06:26:24;;;;;;;42.72;26.90;;;;;;;12.99;100.00;93771.91;5065797;28;20044;-71
2022/10/12 06:28:50;;;;;;;42.60;24.90;;;;;;;13.00;100.00;93773.50;5067314;28;20048;-71
2022/10/12 06:31:17;;;;;;;41.83;24.33;;;;;;;12.65;100.00;93772.16;5068600;28;20053;-71
2022/10/12 06:33:45;;;;;;;40.45;25.52;;;;;;;12.33;100.00;93761.84;5068685;28;20094;-71
2022/10/12 06:36:12;;;;;;;44.13;26.33;;;;;;;12.37;100.00;93768.94;5072386;28;20041;-71
2022/10/12 06:38:40;;;;;;;41.95;26.35;;;;;;;12.35;100.00;93772.75;5072720;28;20090;-71
2022/10/12 06:41:06;;;;;;;41.92;24.98;;;;;;;12.09;100.00;93766.72;5072804;28;20049;-71
2022/10/12 06:43:33;;;;;;;42.53;25.60;;;;;;;12.00;100.00;93766.13;5072532;28;20045;-71
2022/10/12 06:46:01;;;;;;;46.47;28.80;;;;;;;11.81;100.00;93770.34;5072887;28;20044;-71
2022/10/12 06:48:28;;;;;;;46.95;27.70;;;;;;;11.65;100.00;93767.22;5072404;28;20047;-71
2022/10/12 06:50:57;;;;;;;47.65;27.95;;;;;;;11.77;100.00;93781.03;5072917;28;20044;-70
2022/10/12 06:53:24;;;;;;;48.58;27.52;;;;;;;11.73;100.00;93761.06;5072430;28;20500;-70
2022/10/12 06:55:51;;;;;;;43.20;26.42;;;;;;;11.95;100.00;93783.97;5072383;28;20147;-71
2022/10/12 06:58:17;;;;;;;47.00;28.05;;;;;;;12.15;100.00;93789.06;5072196;28;20577;-70
2022/10/12 07:00:44;;;;;;;44.95;27.45;;;;;;;12.21;100.00;93777.16;5072518;28;20106;-70
2022/10/12 07:03:13;;;;;;;44.40;27.02;;;;;;;12.26;100.00;93796.16;5072368;28;20056;-70
2022/10/12 07:05:40;;;;;;;41.95;26.85;;;;;;;12.25;100.00;93792.00;5072384;28;20114;-70
2022/10/12 07:08:08;;;;;;;40.78;25.88;;;;;;;12.31;100.00;93790.38;5072416;28;20053;-70
2022/10/12 07:10:35;;;;;;;41.75;26.27;;;;;;;12.40;100.00;93801.22;5072149;28;20043;-70
2022/10/12 07:13:01;;;;;;;39.30;25.65;;;;;;;12.47;100.00;93796.03;5072007;28;20139;-70
2022/10/12 07:15:28;;;;;;;43.17;25.60;;;;;;;12.54;100.00;93797.59;5071973;28;20048;-70
2022/10/12 07:17:55;;;;;;;45.17;31.35;;;;;;;12.59;100.00;93799.53;5072108;28;20090;-70
2022/10/12 07:20:21;;;;;;;56.55;34.28;;;;;;;12.66;100.00;93791.78;5072105;28;20044;-70
2022/10/12 07:22:48;;;;;;;50.75;30.90;;;;;;;12.68;100.00;93794.94;5071848;28;20559;-70
2022/10/12 07:25:16;;;;;;;53.90;32.03;;;;;;;12.79;100.00;93790.91;5072328;28;20048;-70
2022/10/12 07:27:46;;;;;;;48.63;29.63;;;;;;;12.80;100.00;93789.91;5071694;28;20496;-70
2022/10/12 07:30:13;;;;;;;45.97;29.65;;;;;;;12.84;100.00;93798.81;5070959;28;20041;-70
2022/10/12 07:32:41;;;;;;;48.88;30.30;;;;;;;12.95;100.00;93794.75;5071848;28;20448;-70
2022/10/12 07:35:08;;;;;;;49.15;28.92;;;;;;;13.01;100.00;93793.91;5071515;28;20102;-70
2022/10/12 07:37:35;;;;;;;45.50;27.65;;;;;;;13.16;100.00;93805.72;5071743;28;20097;-70
2022/10/12 07:40:01;;;;;;;37.90;25.30;;;;;;;13.26;100.00;93808.63;5071870;28;20049;-70
2022/10/12 07:42:29;;;;;;;39.97;24.83;;;;;;;13.20;100.00;93810.25;5071420;28;20484;-70
2022/10/12 07:44:56;;;;;;;44.53;25.55;;;;;;;13.19;100.00;93808.66;5071782;28;20044;-70
2022/10/12 07:47:23;;;;;;;41.00;26.10;;;;;;;13.27;100.00;93806.81;5070695;28;20044;-70
2022/10/12 07:49:50;;;;;;;43.67;27.85;;;;;;;13.19;100.00;93808.66;5071712;28;20146;-70
2022/10/12 07:52:16;;;;;;;38.85;24.73;;;;;;;13.14;100.00;93800.00;5071172;28;20040;-70
2022/10/12 07:54:43;;;;;;;44.33;26.92;;;;;;;13.15;100.00;93798.97;5071535;28;20045;-70
2022/10/12 07:57:10;;;;;;;37.95;25.92;;;;;;;13.17;100.00;93802.13;5071245;28;20137;-70
2022/10/12 07:59:38;;;;;;;39.47;24.88;;;;;;;13.10;100.00;93795.25;5071077;28;20044;-70
2022/10/12 08:02:04;;;;;;;44.13;29.33;;;;;;;13.22;100.00;93797.94;5071428;28;20048;-70
2022/10/12 08:04:31;;;;;;;44.60;27.83;;;;;;;13.23;100.00;93796.94;5070897;28;20052;-70
2022/10/12 08:06:58;;;;;;;44.50;26.02;;;;;;;13.35;100.00;93796.25;5071048;28;20044;-70
2022/10/12 08:09:25;;;;;;;51.28;30.25;;;;;;;13.42;100.00;93785.88;5070891;28;20053;-70
2022/10/12 08:11:51;;;;;;;44.47;27.23;;;;;;;13.52;100.00;93796.50;5071067;28;20049;-70
2022/10/12 08:14:18;;;;;;;43.47;28.13;;;;;;;13.59;100.00;93799.03;5070822;28;20578;-70
2022/10/12 08:16:46;;;;;;;52.88;32.88;;;;;;;13.61;100.00;93800.38;5070756;28;20044;-70
2022/10/12 08:19:14;;;;;;;43.53;27.40;;;;;;;13.57;100.00;93796.66;5070627;28;20075;-70
2022/10/12 08:21:41;;;;;;;40.72;26.50;;;;;;;13.63;100.00;93785.50;5071123;28;20048;-70
2022/10/12 08:24:09;;;;;;;41.17;26.30;;;;;;;13.83;100.00;93787.06;5070554;28;20048;-70
2022/10/12 08:26:35;;;;;;;50.75;31.83;;;;;;;13.88;100.00;93792.38;5070940;28;20101;-70
2022/10/12 08:29:04;;;;;;;40.88;27.02;;;;;;;13.74;100.00;93791.72;5070794;28;20048;-70
2022/10/12 08:31:30;;;;;;;40.83;25.42;;;;;;;13.77;100.00;93790.50;5070484;28;20461;-71
2022/10/12 08:33:59;;;;;;;38.45;24.80;;;;;;;13.80;100.00;93797.81;5070534;28;20090;-71
2022/10/12 08:36:26;;;;;;;38.17;24.65;;;;;;;13.88;100.00;93784.63;5070333;28;20051;-70
2022/10/12 08:38:54;;;;;;;35.90;24.10;;;;;;;14.03;100.00;93780.91;5070658;28;20095;-70
2022/10/12 08:41:34;;;;;;;33.63;23.45;;;;;;;14.27;100.00;93802.44;5056493;28;20116;-70
2022/10/12 08:44:14;;;;;;;31.35;21.75;;;;;;;14.43;100.00;93802.88;5070305;28;20090;-70
2022/10/12 08:46:42;;;;;;;27.45;18.40;;;;;;;14.38;100.00;93798.34;5070606;28;20048;-70
2022/10/12 08:49:15;;;;;;;25.60;18.13;;;;;;;14.44;100.00;93799.25;5070433;28;20439;-70
2022/10/12 08:51:47;;;;;;;26.77;17.60;;;;;;;14.46;100.00;93793.88;5070530;28;20408;-71
2022/10/12 08:54:15;;;;;;;27.08;17.08;;;;;;;14.48;100.00;93800.41;5070316;28;20056;-70
2022/10/12 08:56:42;;;;;;;24.60;16.80;;;;;;;14.58;100.00;93797.28;5070059;28;20048;-70
2022/10/12 08:59:13;;;;;;;24.02;16.52;;;;;;;14.64;100.00;93808.56;5064063;28;20049;-70
2022/10/12 09:01:59;;;;;;;23.83;15.52;;;;;;;14.66;100.00;93804.75;5059760;28;20399;-70
2022/10/12 09:04:46;;;;;;;22.52;16.38;;;;;;;14.64;100.00;93800.81;5069446;28;20045;-70
2022/10/12 09:07:17;;;;;;;22.85;16.63;;;;;;;14.53;100.00;93804.91;5068027;28;20114;-70
2022/10/12 09:09:57;;;;;;;23.67;16.58;;;;;;;14.25;100.00;93801.09;5066711;28;20105;-70
2022/10/12 09:12:39;;;;;;;25.58;17.80;;;;;;;14.31;100.00;93802.84;5063293;28;20044;-70
2022/10/12 09:15:11;;;;;;;26.50;17.98;;;;;;;14.21;100.00;93803.31;5068792;28;20053;-70
2022/10/12 09:17:41;;;;;;;28.40;19.50;;;;;;;14.23;100.00;93803.13;5069835;28;20509;-70
2022/10/12 09:20:17;;;;;;;29.17;18.00;;;;;;;14.21;100.00;93803.31;5069473;28;20094;-70
2022/10/12 09:22:48;;;;;;;28.38;17.77;;;;;;;14.01;100.00;93803.56;5069513;28;20083;-71
2022/10/12 09:25:16;;;;;;;26.80;17.67;;;;;;;14.25;100.00;93811.44;5064980;28;20048;-71
2022/10/12 09:27:46;;;;;;;30.33;20.02;;;;;;;14.27;100.00;93812.00;5057279;28;20546;-70
2022/10/12 09:30:15;;;;;;;26.45;16.83;;;;;;;14.43;100.00;93803.66;5049092;28;20516;-70
2022/10/12 09:33:07;;;;;;;22.58;15.50;;;;;;;14.23;100.00;93814.25;5049250;28;20118;-70
2022/10/12 09:35:36;;;;;;;22.80;16.67;;;;;;;14.13;100.00;93806.22;5066454;28;20097;-70
2022/10/12 09:38:04;;;;;;;25.33;16.00;;;;;;;14.09;100.00;93800.69;5068899;28;20500;-71
2022/10/12 09:40:32;;;;;;;24.25;16.88;;;;;;;14.07;100.00;93805.28;5069034;28;20098;-70
2022/10/12 09:43:01;;;;;;;22.52;15.40;;;;;;;14.07;100.00;93810.44;5068624;28;20044;-71
2022/10/12 09:45:31;;;;;;;24.33;14.77;;;;;;;14.02;100.00;93800.75;5068907;28;20044;-71
2022/10/12 09:48:19;;;;;;;24.58;16.02;;;;;;;14.31;100.00;93800.25;5069696;28;20052;-71
2022/10/12 09:50:51;;;;;;;20.17;14.35;;;;;;;14.30;100.00;93789.09;5069458;28;20115;-71
2022/10/12 09:53:26;;;;;;;21.42;13.48;;;;;;;14.48;100.00;93799.63;5059845;28;20040;-70
2022/10/12 09:55:57;;;;;;;18.63;12.15;;;;;;;14.49;100.00;93793.47;5068612;28;20492;-70
2022/10/12 09:58:26;;;;;;;18.48;12.65;;;;;;;14.76;100.00;93803.47;5068670;28;20056;-70
2022/10/12 10:01:15;;;;;;;17.88;12.73;;;;;;;15.10;100.00;93799.38;5068977;28;20049;-70
2022/10/12 10:03:42;;;;;;;19.50;12.60;;;;;;;15.27;100.00;93806.47;5068645;28;20047;-71
2022/10/12 10:06:10;;;;;;;19.48;10.85;;;;;;;15.22;100.00;93807.16;5069341;28;20110;-71
2022/10/12 10:08:42;;;;;;;19.38;12.23;;;;;;;15.38;100.00;93810.09;5068961;28;20048;-71
2022/10/12 10:11:16;;;;;;;16.80;11.65;;;;;;;15.26;100.00;93789.38;5066872;28;20056;-71
2022/10/12 10:13:52;;;;;;;16.17;10.68;;;;;;;15.17;100.00;93794.09;5068037;28;20049;-71
2022/10/12 10:16:19;;;;;;;;;;;;;;;15.17;100.00;93803.66;5068701;28;20090;-71
2022/10/12 10:18:49;;;;;;;16.55;11.27;;;;;;;15.25;100.00;93803.34;5068171;28;19935;-71
2022/10/12 10:21:26;;;;;;;17.60;12.40;;;;;;;15.27;100.00;93801.28;5068671;28;20126;-71
2022/10/12 10:23:56;;;;;;;19.88;13.73;;;;;;;15.22;100.00;93788.25;5068456;28;20044;-71
2022/10/12 10:26:24;;;;;;;15.95;10.45;;;;;;;15.54;100.00;93787.91;5069104;28;20040;-70
2022/10/12 10:28:56;;;;;;;17.00;10.90;;;;;;;15.53;100.00;93786.34;5068720;28;20044;-70
2022/10/12 10:31:26;;;;;;;16.73;10.27;;;;;;;15.59;100.00;93788.03;5068695;28;20041;-71
2022/10/12 10:34:20;;;;;;;15.35;10.10;;;;;;;15.59;100.00;93793.19;5068634;28;20041;-71
2022/10/12 10:36:50;;;;;;;18.98;11.10;;;;;;;15.42;100.00;93785.31;5068975;28;20515;-71
2022/10/12 10:39:22;;;;;;;16.55;10.73;;;;;;;15.75;100.00;93780.59;5069027;28;20052;-70
2022/10/12 10:41:50;;;;;;;14.88;10.68;;;;;;;15.83;100.00;93787.22;5068760;28;20048;-71
2022/10/12 10:44:29;;;;;;;24.33;13.77;;;;;;;16.02;100.00;93787.91;5067442;28;20511;-71
2022/10/12 10:47:00;;;;;;;23.08;13.80;;;;;;;16.12;100.00;93790.66;5064831;28;20049;-71
2022/10/12 10:49:40;;;;;;;18.95;11.32;;;;;;;16.27;100.00;93789.38;5062083;28;20917;-70
2022/10/12 10:52:21;;;;;;;14.05;9.32;;;;;;;16.50;100.00;93772.97;5065603;28;20049;-70
2022/10/12 10:54:48;;;;;;;19.48;10.75;;;;;;;16.45;100.00;93778.06;5066956;28;20102;-70
2022/10/12 10:57:19;;;;;;;15.48;9.90;;;;;;;16.56;100.00;93774.63;5062254;28;20083;-70
2022/10/12 10:59:50;;;;;;;14.30;9.25;;;;;;;16.74;100.00;93775.44;5059060;28;20045;-70
2022/10/12 11:02:42;;;;;;;15.85;10.30;;;;;;;17.09;100.00;93764.09;5067776;28;20052;-70
2022/10/12 11:05:16;;;;;;;13.73;8.93;;;;;;;17.30;100.00;93763.59;5057807;28;20498;-70
2022/10/12 11:07:49;;;;;;;16.40;9.90;;;;;;;17.45;100.00;93766.41;5057329;28;20086;-70
2022/10/12 11:10:28;;;;;;;13.80;8.93;;;;;;;17.58;100.00;93756.72;5066182;28;20102;-71
2022/10/12 11:13:02;;;;;;;13.73;8.52;;;;;;;17.09;100.00;93763.31;5069044;28;20131;-71
2022/10/12 11:15:34;;;;;;;14.93;8.93;;;;;;;16.96;100.00;93759.19;5068218;28;20055;-70
2022/10/12 11:18:13;;;;;;;15.32;10.23;;;;;;;17.15;100.00;93754.56;5056184;28;20433;-70
2022/10/12 11:20:50;;;;;;;15.32;9.93;;;;;;;17.18;100.00;93758.50;5060088;28;20423;-70